Time;durP1;ratioP1;P1;durP2;ratioP2;P2;SDS_P1;SDS_P2;PMS_P1;PMS_P2;Temp;Humidity;BMP_temperature;BMP_pressure;BME280_temperature;BME280_humidity;BME280_pressure;Samples;Min_cycle;Max_cycle;Signal;HPM_P1;HPM_P2
2023/06/17 00:00:41;;;;;;;16.48;12.80;;;16.60;99.90;;;;;;5095307;28;20125;-77
2023/06/17 00:03:07;;;;;;;21.50;14.05;;;16.60;99.90;;;;;;5095323;28;20080;-77
2023/06/17 00:05:32;;;;;;;23.98;13.60;;;16.50;99.90;;;;;;5095213;28;20044;-77
2023/06/17 00:07:58;;;;;;;18.90;13.43;;;16.50;99.90;;;;;;5093795;28;20048;-77
2023/06/17 00:10:24;;;;;;;23.02;14.35;;;16.40;99.90;;;;;;5095090;28;20047;-77
2023/06/17 00:12:49;;;;;;;19.75;13.07;;;16.50;99.90;;;;;;5095053;28;20537;-77
2023/06/17 00:15:16;;;;;;;19.98;13.63;;;16.50;99.90;;;;;;5093750;28;20044;-77
2023/06/17 00:17:46;;;;;;;25.02;14.05;;;16.50;99.90;;;;;;5095028;28;20164;-77
2023/06/17 00:20:13;;;;;;;23.75;12.68;;;16.50;99.90;;;;;;5094725;28;20040;-77
2023/06/17 00:22:40;;;;;;;24.73;14.13;;;16.50;99.90;;;;;;5095152;28;20492;-77
2023/06/17 00:25:07;;;;;;;20.73;13.77;;;16.40;99.90;;;;;;5094624;28;20060;-77
2023/06/17 00:27:33;;;;;;;19.98;13.07;;;16.50;99.90;;;;;;5094749;28;20083;-77
2023/06/17 00:29:59;;;;;;;19.08;13.23;;;16.50;99.90;;;;;;5093475;28;20067;-77
2023/06/17 00:32:29;;;;;;;22.77;13.90;;;16.50;99.90;;;;;;5094654;28;20126;-77
2023/06/17 00:34:55;;;;;;;20.75;13.18;;;16.50;99.90;;;;;;5093268;28;20392;-77
2023/06/17 00:37:21;;;;;;;21.92;13.95;;;16.40;99.90;;;;;;5093177;28;20483;-77
2023/06/17 00:39:47;;;;;;;21.95;13.93;;;16.40;99.90;;;;;;5094632;28;20039;-77
2023/06/17 00:42:12;;;;;;;23.17;15.07;;;16.40;99.90;;;;;;5094646;28;20180;-77
2023/06/17 00:44:41;;;;;;;20.73;14.55;;;16.40;99.90;;;;;;5093259;28;20127;-78
2023/06/17 00:47:10;;;;;;;21.55;14.43;;;16.50;99.90;;;;;;5094220;28;20039;-77
2023/06/17 00:49:38;;;;;;;19.23;14.00;;;16.40;99.90;;;;;;5094108;28;20438;-77
2023/06/17 00:52:07;;;;;;;27.48;15.88;;;16.40;99.90;;;;;;5094440;28;20047;-77
2023/06/17 00:54:36;;;;;;;27.48;16.38;;;16.40;99.90;;;;;;5094164;28;20380;-76
2023/06/17 00:57:02;;;;;;;23.92;15.73;;;16.40;99.90;;;;;;5094192;28;20040;-77
2023/06/17 00:59:32;;;;;;;27.95;17.88;;;16.40;99.90;;;;;;5093261;28;20498;-77
2023/06/17 01:01:58;;;;;;;25.73;17.00;;;16.50;99.90;;;;;;5094218;28;20044;-77
2023/06/17 01:04:24;;;;;;;21.15;16.40;;;16.50;99.90;;;;;;5094256;28;20040;-77
2023/06/17 01:07:23;;;;;;;25.63;16.88;;;16.40;99.90;;;;;;5093085;28;20042;-77
2023/06/17 01:10:01;;;;;;;24.90;15.43;;;16.40;99.90;;;;;;5093633;28;20119;-77
2023/06/17 01:12:28;;;;;;;22.17;15.50;;;16.40;99.90;;;;;;5092739;28;20083;-77
2023/06/17 01:14:57;;;;;;;23.77;16.00;;;16.40;99.90;;;;;;5092679;28;20051;-77
2023/06/17 01:17:25;;;;;;;23.73;16.17;;;16.50;99.90;;;;;;5093948;28;20151;-77
2023/06/17 01:19:53;;;;;;;25.10;16.85;;;16.40;99.90;;;;;;5092685;28;20491;-77
2023/06/17 01:22:20;;;;;;;24.90;16.55;;;16.40;99.90;;;;;;5093905;28;20040;-77
2023/06/17 01:24:49;;;;;;;22.48;15.90;;;16.20;99.90;;;;;;5093554;28;20052;-77
2023/06/17 01:27:15;;;;;;;20.50;15.95;;;16.20;99.90;;;;;;5093868;28;20127;-77
2023/06/17 01:29:41;;;;;;;23.13;17.02;;;16.20;99.90;;;;;;5093763;28;20036;-77
2023/06/17 01:32:07;;;;;;;22.48;15.85;;;16.10;99.90;;;;;;5092529;28;20044;-77
2023/06/17 01:34:50;;;;;;;26.58;16.92;;;16.20;99.90;;;;;;5092576;28;20047;-77
2023/06/17 01:37:25;;;;;;;24.30;15.73;;;16.20;99.90;;;;;;5092597;28;20052;-77
2023/06/17 01:39:55;;;;;;;26.27;16.95;;;16.20;99.90;;;;;;5092418;28;20085;-77
2023/06/17 01:42:27;;;;;;;21.00;14.73;;;16.20;99.90;;;;;;5092701;28;20044;-77
2023/06/17 01:44:54;;;;;;;25.85;16.25;;;16.20;99.90;;;;;;5093052;28;20032;-77
2023/06/17 01:47:21;;;;;;;25.17;16.05;;;16.10;99.90;;;;;;5092486;28;20044;-77
2023/06/17 01:49:46;;;;;;;19.58;16.20;;;16.10;99.90;;;;;;5094057;28;20036;-77
2023/06/17 01:52:12;;;;;;;23.85;15.95;;;16.20;99.90;;;;;;5093683;28;20046;-77
2023/06/17 01:54:38;;;;;;;22.75;16.08;;;16.20;99.90;;;;;;5093453;28;20046;-77
2023/06/17 01:57:04;;;;;;;27.13;16.40;;;16.10;99.90;;;;;;5092596;28;20043;-77
2023/06/17 01:59:30;;;;;;;24.83;15.90;;;16.20;99.90;;;;;;5093602;28;20032;-77
2023/06/17 02:01:56;;;;;;;23.23;15.23;;;16.20;99.90;;;;;;5093547;28;20082;-77
2023/06/17 02:04:22;;;;;;;25.88;17.60;;;16.10;99.90;;;;;;5093325;28;20166;-77
2023/06/17 02:06:47;;;;;;;24.77;16.15;;;16.10;99.90;;;;;;5093637;28;20036;-77
2023/06/17 02:09:13;;;;;;;23.80;16.30;;;16.10;99.90;;;;;;5093406;28;20040;-77
2023/06/17 02:11:39;;;;;;;24.27;16.20;;;16.10;99.90;;;;;;5093393;28;20044;-77
2023/06/17 02:14:04;;;;;;;23.05;15.30;;;16.10;99.90;;;;;;5093620;28;20101;-77
2023/06/17 02:16:30;;;;;;;24.05;15.32;;;16.00;99.90;;;;;;5092182;28;20172;-77
2023/06/17 02:18:56;;;;;;;22.15;14.32;;;15.90;99.90;;;;;;5091955;28;20055;-77
2023/06/17 02:21:22;;;;;;;24.60;15.02;;;15.90;99.90;;;;;;5096123;28;20047;-77
2023/06/17 02:23:49;;;;;;;22.35;15.00;;;15.90;99.90;;;;;;5095593;28;20457;-77
2023/06/17 02:26:17;;;;;;;23.92;15.63;;;15.90;99.90;;;;;;5097231;28;20047;-77
2023/06/17 02:28:43;;;;;;;24.52;15.10;;;15.90;99.90;;;;;;5097122;28;20365;-77
2023/06/17 02:31:09;;;;;;;23.10;15.13;;;15.90;99.90;;;;;;5095766;28;20533;-77
2023/06/17 02:33:36;;;;;;;24.85;15.52;;;15.80;99.90;;;;;;5095651;28;20036;-77
2023/06/17 02:36:01;;;;;;;25.52;15.45;;;15.90;99.90;;;;;;5097058;28;20040;-77
2023/06/17 02:38:28;;;;;;;27.98;15.90;;;15.90;99.90;;;;;;5097158;28;20573;-77
2023/06/17 02:40:54;;;;;;;20.20;14.82;;;15.80;99.90;;;;;;5096992;28;20048;-77
2023/06/17 02:43:20;;;;;;;21.77;14.80;;;15.80;99.90;;;;;;5095633;28;20373;-77
2023/06/17 02:45:46;;;;;;;19.95;13.77;;;15.80;99.90;;;;;;5096938;28;20510;-77
2023/06/17 02:48:12;;;;;;;24.95;15.45;;;15.90;99.90;;;;;;5097074;28;20040;-77
2023/06/17 02:50:37;;;;;;;22.67;15.80;;;15.80;99.90;;;;;;5096678;28;20046;-77
2023/06/17 02:53:04;;;;;;;28.45;15.73;;;15.80;99.90;;;;;;5095317;28;20051;-77
2023/06/17 02:55:30;;;;;;;23.02;15.25;;;15.80;99.90;;;;;;5096734;28;20051;-77
2023/06/17 02:57:56;;;;;;;24.67;16.73;;;15.90;99.90;;;;;;5096574;28;20039;-77
2023/06/17 03:00:22;;;;;;;26.65;16.85;;;16.00;99.90;;;;;;5096452;28;20062;-77
2023/06/17 03:02:49;;;;;;;24.67;16.20;;;16.00;99.90;;;;;;5096524;28;20487;-76
2023/06/17 03:05:16;;;;;;;26.08;17.35;;;15.90;99.90;;;;;;5096445;28;20044;-77
2023/06/17 03:07:42;;;;;;;22.15;16.27;;;16.00;99.90;;;;;;5094833;28;20079;-77
2023/06/17 03:10:09;;;;;;;24.38;15.43;;;16.00;99.90;;;;;;5094823;28;20040;-77
2023/06/17 03:12:34;;;;;;;21.92;15.00;;;16.00;99.90;;;;;;5094881;28;20487;-77
2023/06/17 03:15:01;;;;;;;26.48;15.75;;;16.10;99.90;;;;;;5093770;28;20068;-77
2023/06/17 03:17:27;;;;;;;22.70;14.52;;;16.00;99.90;;;;;;5095107;28;20044;-77
2023/06/17 03:19:53;;;;;;;24.98;15.10;;;16.00;99.90;;;;;;5094379;28;20048;-77
2023/06/17 03:22:19;;;;;;;24.60;15.27;;;16.00;99.90;;;;;;5095804;28;20105;-77
2023/06/17 03:24:46;;;;;;;25.45;15.60;;;16.10;99.90;;;;;;5094388;28;20058;-76
2023/06/17 03:27:13;;;;;;;25.17;16.05;;;16.00;99.90;;;;;;5094415;28;20048;-76
2023/06/17 03:29:38;;;;;;;26.77;16.00;;;16.00;99.90;;;;;;5095418;28;20594;-77
2023/06/17 03:32:04;;;;;;;25.00;15.20;;;16.00;99.90;;;;;;5094989;28;20127;-77
2023/06/17 03:34:32;;;;;;;25.40;15.00;;;15.90;99.90;;;;;;5095542;28;20083;-76
2023/06/17 03:36:57;;;;;;;23.27;15.25;;;15.90;99.90;;;;;;5094543;28;20044;-77
2023/06/17 03:39:23;;;;;;;24.50;14.25;;;15.90;99.90;;;;;;5094215;28;20050;-77
2023/06/17 03:41:49;;;;;;;23.27;14.40;;;16.00;99.90;;;;;;5094091;28;20499;-77
2023/06/17 03:44:15;;;;;;;22.95;14.90;;;16.00;99.90;;;;;;5095500;28;20047;-77
2023/06/17 03:46:40;;;;;;;23.88;15.38;;;16.10;99.90;;;;;;5094389;28;20075;-77
2023/06/17 03:49:06;;;;;;;23.77;15.88;;;16.10;99.90;;;;;;5095595;28;20040;-77
2023/06/17 03:51:32;;;;;;;24.10;14.40;;;16.10;99.90;;;;;;5095129;28;20051;-77
2023/06/17 03:53:58;;;;;;;26.25;16.55;;;16.10;99.90;;;;;;5095328;28;20047;-77
2023/06/17 03:56:23;;;;;;;26.30;13.85;;;16.10;99.90;;;;;;5095047;28;20044;-77
2023/06/17 03:58:49;;;;;;;23.40;14.43;;;16.20;99.90;;;;;;5093851;28;20475;-77
2023/06/17 04:01:15;;;;;;;23.45;14.10;;;16.20;99.90;;;;;;5095025;28;20442;-77
2023/06/17 04:03:41;;;;;;;22.63;15.10;;;16.10;99.90;;;;;;5095106;28;20467;-77
2023/06/17 04:06:08;;;;;;;23.83;15.68;;;16.10;99.90;;;;;;5095162;28;20083;-76
2023/06/17 04:08:35;;;;;;;24.58;16.40;;;16.10;99.90;;;;;;5093624;28;20044;-77
2023/06/17 04:11:02;;;;;;;21.45;16.67;;;16.10;99.90;;;;;;5094766;28;20044;-77
2023/06/17 04:13:28;;;;;;;24.15;15.10;;;16.10;99.90;;;;;;5094688;28;20514;-77
2023/06/17 04:15:53;;;;;;;22.20;14.82;;;16.20;99.90;;;;;;5093461;28;20533;-77
2023/06/17 04:18:19;;;;;;;25.40;15.50;;;16.10;99.90;;;;;;5093596;28;20052;-77
2023/06/17 04:20:45;;;;;;;28.35;15.27;;;16.10;99.90;;;;;;5093570;28;20418;-78
2023/06/17 04:23:10;;;;;;;26.00;17.17;;;16.10;99.90;;;;;;5094407;28;20054;-77
2023/06/17 04:25:37;;;;;;;27.95;16.92;;;16.10;99.90;;;;;;5093256;28;20105;-77
2023/06/17 04:28:07;;;;;;;32.15;17.08;;;16.00;99.90;;;;;;5094552;28;20101;-77
2023/06/17 04:30:33;;;;;;;31.55;18.00;;;16.00;99.90;;;;;;5093298;28;20052;-77
2023/06/17 04:33:00;;;;;;;23.83;16.92;;;16.10;99.90;;;;;;5094634;28;20028;-77
2023/06/17 04:35:29;;;;;;;29.35;17.63;;;16.10;99.90;;;;;;5094572;28;20047;-77
2023/06/17 04:37:55;;;;;;;26.55;17.00;;;16.20;99.90;;;;;;5094360;28;20036;-77
2023/06/17 04:40:25;;;;;;;24.73;16.23;;;16.20;99.90;;;;;;5092971;28;20050;-77
2023/06/17 04:42:51;;;;;;;22.73;15.93;;;16.20;99.90;;;;;;5093781;28;20040;-78
2023/06/17 04:45:17;;;;;;;24.65;14.88;;;16.20;99.90;;;;;;5092907;28;20532;-77
2023/06/17 04:47:44;;;;;;;25.05;16.00;;;16.20;99.90;;;;;;5093006;28;20063;-77
2023/06/17 04:50:12;;;;;;;28.95;15.68;;;16.20;99.90;;;;;;5092801;28;20044;-77
2023/06/17 04:52:44;;;;;;;21.65;15.07;;;16.10;99.90;;;;;;5092377;28;20048;-77
2023/06/17 04:55:11;;;;;;;23.03;15.93;;;16.20;99.90;;;;;;5092981;28;20044;-77
2023/06/17 04:57:37;;;;;;;23.27;14.63;;;16.30;99.90;;;;;;5093004;28;20491;-77
2023/06/17 05:00:05;;;;;;;30.70;16.92;;;16.20;99.90;;;;;;5094102;28;20066;-77
2023/06/17 05:02:31;;;;;;;23.20;15.32;;;16.20;99.90;;;;;;5094174;28;20052;-77
2023/06/17 05:04:56;;;;;;;22.50;14.75;;;16.30;99.90;;;;;;5094007;28;20047;-77
2023/06/17 05:07:22;;;;;;;25.17;14.98;;;16.30;99.90;;;;;;5092514;28;20044;-77
2023/06/17 05:09:48;;;;;;;19.67;15.15;;;16.30;99.90;;;;;;5094064;28;20046;-77
2023/06/17 05:12:13;;;;;;;21.52;15.30;;;16.20;99.90;;;;;;5093716;28;20044;-77
2023/06/17 05:14:39;;;;;;;20.70;15.77;;;16.20;99.90;;;;;;5093768;28;20051;-77
2023/06/17 05:17:05;;;;;;;22.85;15.25;;;16.30;99.90;;;;;;5092709;28;20503;-78
2023/06/17 05:19:31;;;;;;;20.48;14.95;;;16.30;99.90;;;;;;5092383;28;20040;-77
2023/06/17 05:21:56;;;;;;;23.70;14.70;;;16.40;99.90;;;;;;5092571;28;20048;-77
2023/06/17 05:24:22;;;;;;;21.80;15.10;;;16.40;99.90;;;;;;5092155;28;20407;-77
2023/06/17 05:26:48;;;;;;;23.90;15.43;;;16.40;99.90;;;;;;5092333;28;20051;-77
2023/06/17 05:29:14;;;;;;;20.60;13.93;;;16.50;99.90;;;;;;5092502;28;20040;-77
2023/06/17 05:31:40;;;;;;;26.40;14.23;;;16.50;99.90;;;;;;5092262;28;20204;-77
2023/06/17 05:34:05;;;;;;;22.77;13.68;;;16.40;99.90;;;;;;5092200;28;20559;-77
2023/06/17 05:36:31;;;;;;;21.77;13.68;;;16.40;99.90;;;;;;5092454;28;20044;-77
2023/06/17 05:38:57;;;;;;;20.27;15.07;;;16.40;99.90;;;;;;5093435;28;20036;-77
2023/06/17 05:41:22;;;;;;;22.42;14.38;;;16.40;99.90;;;;;;5093455;28;20382;-77
2023/06/17 05:43:48;;;;;;;26.63;14.85;;;16.40;99.90;;;;;;5093671;28;20476;-77
2023/06/17 05:46:14;;;;;;;25.38;13.98;;;16.40;99.90;;;;;;5093660;28;20050;-77
2023/06/17 05:48:39;;;;;;;20.00;14.45;;;16.50;99.90;;;;;;5092289;28;20044;-77
2023/06/17 05:51:05;;;;;;;18.35;12.50;;;16.50;99.90;;;;;;5091940;28;20048;-77
2023/06/17 05:53:31;;;;;;;21.48;13.27;;;16.50;99.90;;;;;;5092081;28;20040;-77
2023/06/17 05:55:56;;;;;;;24.30;13.88;;;16.50;99.90;;;;;;5096938;28;20123;-77
2023/06/17 05:58:22;;;;;;;22.58;13.73;;;16.50;99.90;;;;;;5097649;28;20044;-77
2023/06/17 06:00:48;;;;;;;20.73;13.48;;;16.50;99.90;;;;;;5097648;28;20044;-77
2023/06/17 06:03:13;;;;;;;20.45;14.90;;;16.60;99.90;;;;;;5097341;28;20380;-77
2023/06/17 06:05:39;;;;;;;25.65;15.27;;;16.60;99.90;;;;;;5096397;28;20055;-77
2023/06/17 06:08:05;;;;;;;25.00;14.13;;;16.70;99.90;;;;;;5097397;28;20479;-77
2023/06/17 06:10:30;;;;;;;19.02;13.55;;;16.80;99.90;;;;;;5096093;28;20075;-77
2023/06/17 06:12:56;;;;;;;21.42;12.75;;;16.80;99.90;;;;;;5095947;28;20540;-77
2023/06/17 06:15:23;;;;;;;26.25;12.57;;;16.80;99.90;;;;;;5096127;28;20052;-77
2023/06/17 06:17:49;;;;;;;36.00;14.80;;;16.80;99.90;;;;;;5095801;28;20119;-77
2023/06/17 06:20:14;;;;;;;23.50;13.57;;;16.80;99.90;;;;;;5095944;28;20123;-77
2023/06/17 06:22:40;;;;;;;20.55;12.77;;;16.80;99.90;;;;;;5095721;28;20048;-76
2023/06/17 06:25:08;;;;;;;22.60;12.82;;;16.70;99.90;;;;;;5095529;28;20127;-76
2023/06/17 06:27:34;;;;;;;23.98;13.95;;;16.80;99.90;;;;;;5095579;28;20059;-75
2023/06/17 06:30:00;;;;;;;24.08;12.52;;;16.70;99.90;;;;;;5095597;28;20090;-75
2023/06/17 06:32:26;;;;;;;23.80;13.25;;;16.70;99.90;;;;;;5095656;28;20141;-75
2023/06/17 06:34:51;;;;;;;27.13;12.60;;;16.80;99.90;;;;;;5096637;28;20048;-75
2023/06/17 06:37:17;;;;;;;22.08;13.40;;;16.80;99.90;;;;;;5095728;28;20046;-75
2023/06/17 06:39:43;;;;;;;24.17;13.35;;;16.80;99.90;;;;;;5096864;28;20431;-76
2023/06/17 06:42:11;;;;;;;22.13;12.93;;;16.90;99.90;;;;;;5095394;28;20044;-76
2023/06/17 06:44:37;;;;;;;22.55;12.43;;;16.90;99.90;;;;;;5095516;28;20054;-76
2023/06/17 06:47:03;;;;;;;24.75;12.63;;;17.00;99.90;;;;;;5096734;28;20127;-76
2023/06/17 06:49:29;;;;;;;22.02;13.13;;;17.00;99.90;;;;;;5096724;28;20441;-77
2023/06/17 06:51:54;;;;;;;20.90;13.05;;;17.00;99.90;;;;;;5096278;28;20052;-76
2023/06/17 06:54:20;;;;;;;24.25;13.90;;;17.00;99.90;;;;;;5096394;28;20043;-76
2023/06/17 06:56:46;;;;;;;18.52;12.13;;;17.00;99.90;;;;;;5096256;28;20057;-75
2023/06/17 06:59:11;;;;;;;19.63;12.40;;;17.10;99.90;;;;;;5095277;28;20100;-76
2023/06/17 07:01:37;;;;;;;19.58;12.57;;;17.10;99.90;;;;;;5095016;28;20040;-75
2023/06/17 07:04:02;;;;;;;20.95;13.00;;;17.10;99.90;;;;;;5096344;28;20044;-76
2023/06/17 07:06:28;;;;;;;21.10;13.43;;;17.20;99.90;;;;;;5093825;28;20055;-84
2023/06/17 07:08:54;;;;;;;25.58;13.32;;;17.20;99.90;;;;;;5094792;28;20052;-76
2023/06/17 07:11:19;;;;;;;18.40;12.57;;;17.30;99.90;;;;;;5096219;28;20089;-76
2023/06/17 07:13:45;;;;;;;21.90;14.05;;;17.30;99.90;;;;;;5094768;28;20125;-76
2023/06/17 07:16:11;;;;;;;20.10;12.90;;;17.30;99.90;;;;;;5094687;28;20040;-76
2023/06/17 07:18:36;;;;;;;19.35;12.75;;;17.30;99.90;;;;;;5095852;28;20040;-76
2023/06/17 07:21:02;;;;;;;21.40;12.73;;;17.40;99.90;;;;;;5095849;28;20055;-76
2023/06/17 07:23:29;;;;;;;24.08;12.63;;;17.40;99.90;;;;;;5095842;28;20048;-81
2023/06/17 07:25:55;;;;;;;20.20;13.15;;;17.50;99.90;;;;;;5094574;28;20055;-76
2023/06/17 07:28:21;;;;;;;22.17;14.15;;;17.60;99.90;;;;;;5093485;28;20076;-76
2023/06/17 07:30:48;;;;;;;22.42;13.52;;;17.60;99.90;;;;;;5085283;28;20052;-75
2023/06/17 07:33:14;;;;;;;20.05;14.15;;;17.70;99.90;;;;;;5073908;28;20063;-75
2023/06/17 07:35:40;;;;;;;24.98;13.85;;;17.90;99.90;;;;;;5074146;28;20040;-76
2023/06/17 07:38:05;;;;;;;25.70;14.15;;;18.00;99.90;;;;;;5073979;28;20063;-76
2023/06/17 07:40:31;;;;;;;21.17;13.30;;;18.10;99.90;;;;;;5075299;28;20044;-76
2023/06/17 07:42:57;;;;;;;21.92;12.85;;;18.20;99.90;;;;;;5073829;28;20041;-76
2023/06/17 07:45:22;;;;;;;20.35;12.98;;;18.20;99.90;;;;;;5073903;28;20056;-75
2023/06/17 07:47:48;;;;;;;21.50;14.23;;;18.30;99.90;;;;;;5075209;28;20075;-75
2023/06/17 07:50:14;;;;;;;19.80;13.75;;;18.40;99.90;;;;;;5074998;28;20071;-75
2023/06/17 07:52:39;;;;;;;20.80;13.02;;;18.50;99.90;;;;;;5107360;28;20128;-75
2023/06/17 07:55:08;;;;;;;18.45;12.55;;;18.60;99.90;;;;;;5075049;28;20028;-76
2023/06/17 07:57:34;;;;;;;21.10;12.90;;;18.50;99.90;;;;;;5073495;28;20048;-76
2023/06/17 08:00:00;;;;;;;22.65;13.10;;;18.60;99.90;;;;;;5073412;28;20072;-75
2023/06/17 08:02:25;;;;;;;19.83;11.93;;;18.70;99.90;;;;;;5073556;28;20076;-75
2023/06/17 08:04:51;;;;;;;21.25;13.50;;;18.80;99.90;;;;;;5074592;28;20041;-75
2023/06/17 08:07:20;;;;;;;19.25;12.60;;;18.90;99.90;;;;;;5073257;28;20043;-75
2023/06/17 08:09:45;;;;;;;22.27;12.68;;;19.00;99.90;;;;;;5073141;28;20108;-75
2023/06/17 08:12:11;;;;;;;22.48;13.43;;;19.00;99.90;;;;;;5074403;28;20072;-75
2023/06/17 08:14:36;;;;;;;19.65;12.32;;;19.00;99.90;;;;;;5074351;28;20083;-75
2023/06/17 08:17:02;;;;;;;19.90;13.30;;;19.00;99.90;;;;;;5073348;28;20166;-75
2023/06/17 08:19:28;;;;;;;24.60;13.45;;;19.00;99.90;;;;;;5073126;28;20206;-75
2023/06/17 08:21:54;;;;;;;20.40;12.27;;;19.10;99.90;;;;;;5074396;28;20047;-76
2023/06/17 08:24:25;;;;;;;19.27;12.27;;;19.30;99.90;;;;;;5072746;28;20064;-75
2023/06/17 08:26:51;;;;;;;23.58;13.02;;;19.40;99.90;;;;;;5074279;28;20088;-75
2023/06/17 08:29:18;;;;;;;19.17;12.27;;;19.50;99.90;;;;;;5073766;28;20063;-74
2023/06/17 08:31:50;;;;;;;17.92;12.23;;;19.50;99.90;;;;;;5094151;28;20506;-75
2023/06/17 08:34:16;;;;;;;20.25;11.98;;;19.60;99.90;;;;;;5094583;28;20036;-75
2023/06/17 08:36:43;;;;;;;20.83;12.32;;;19.70;99.90;;;;;;5093145;28;20051;-75
2023/06/17 08:39:09;;;;;;;21.95;12.15;;;19.90;99.90;;;;;;5092907;28;20550;-75
2023/06/17 08:41:40;;;;;;;23.00;13.05;;;20.00;99.90;;;;;;5092587;28;20136;-75
2023/06/17 08:44:07;;;;;;;17.00;11.30;;;20.10;99.90;;;;;;5092770;28;20055;-76
2023/06/17 08:46:34;;;;;;;20.15;12.75;;;20.00;99.90;;;;;;5092859;28;20479;-75
2023/06/17 08:49:02;;;;;;;18.77;11.88;;;20.10;99.90;;;;;;5093057;28;20093;-73
2023/06/17 08:51:28;;;;;;;18.55;12.13;;;20.10;99.90;;;;;;5092627;28;20040;-75
2023/06/17 08:53:55;;;;;;;22.10;12.20;;;20.30;99.90;;;;;;5094210;28;20040;-75
2023/06/17 08:56:21;;;;;;;20.45;11.98;;;20.30;99.90;;;;;;5094208;28;20036;-75
2023/06/17 08:58:49;;;;;;;18.50;11.32;;;20.50;99.90;;;;;;5092479;28;20040;-75
2023/06/17 09:01:16;;;;;;;21.83;12.93;;;20.50;99.90;;;;;;5092644;28;20060;-76
2023/06/17 09:03:42;;;;;;;17.77;12.10;;;20.40;99.90;;;;;;5092755;28;20075;-75
2023/06/17 09:06:23;;;;;;;18.67;11.15;;;20.70;99.90;;;;;;5092770;28;20055;-75
2023/06/17 09:08:53;;;;;;;20.83;12.23;;;20.80;99.90;;;;;;5092643;28;20044;-73
2023/06/17 09:11:30;;;;;;;19.27;11.88;;;20.90;99.90;;;;;;5092314;28;20048;-74
2023/06/17 09:13:57;;;;;;;18.75;12.40;;;21.00;99.90;;;;;;5092559;28;20048;-74
2023/06/17 09:16:31;;;;;;;18.30;11.77;;;21.20;99.90;;;;;;5092294;28;20051;-74
2023/06/17 09:19:04;;;;;;;20.48;12.32;;;21.30;99.90;;;;;;5093555;28;20048;-74
2023/06/17 09:21:31;;;;;;;19.88;11.98;;;21.60;99.90;;;;;;5093325;28;20376;-74
2023/06/17 09:24:02;;;;;;;17.48;10.90;;;21.60;99.90;;;;;;5093197;28;20407;-74
2023/06/17 09:26:39;;;;;;;21.58;10.85;;;21.60;99.90;;;;;;5093622;28;20047;-74
2023/06/17 09:29:09;;;;;;;18.40;12.10;;;21.70;99.90;;;;;;5091531;28;20094;-74
2023/06/17 09:31:48;;;;;;;19.88;11.77;;;21.70;99.90;;;;;;5092144;28;20122;-74
2023/06/17 09:34:14;;;;;;;18.58;11.65;;;21.90;99.90;;;;;;5092031;28;20122;-74
2023/06/17 09:36:40;;;;;;;22.83;12.68;;;22.10;99.90;;;;;;5093607;28;20040;-74
2023/06/17 09:39:08;;;;;;;16.33;10.68;;;22.10;99.90;;;;;;5093373;28;20051;-75
2023/06/17 09:41:41;;;;;;;17.45;10.90;;;22.10;99.90;;;;;;5092024;28;20044;-74
2023/06/17 09:44:08;;;;;;;18.10;10.80;;;22.30;99.90;;;;;;5092157;28;20483;-74
2023/06/17 09:46:39;;;;;;;18.15;10.30;;;22.50;99.90;;;;;;5093187;28;20043;-74
2023/06/17 09:49:12;;;;;;;17.60;10.57;;;22.20;99.90;;;;;;5091986;28;20490;-74
2023/06/17 09:51:39;;;;;;;21.80;11.30;;;22.30;99.90;;;;;;5091808;28;20082;-74
2023/06/17 09:54:06;;;;;;;16.90;10.15;;;22.30;99.90;;;;;;5092134;28;20040;-74
2023/06/17 09:56:33;;;;;;;23.17;11.63;;;22.50;99.90;;;;;;5093299;28;20165;-74
2023/06/17 09:58:59;;;;;;;14.48;10.40;;;22.70;99.90;;;;;;5093083;28;20055;-74
2023/06/17 10:01:30;;;;;;;15.90;10.70;;;23.00;99.90;;;;;;5092035;28;20055;-74
2023/06/17 10:03:59;;;;;;;16.63;10.95;;;22.90;99.90;;;;;;5091812;28;20150;-75
2023/06/17 10:06:29;;;;;;;16.95;10.13;;;23.10;99.90;;;;;;5093336;28;20048;-74
2023/06/17 10:08:55;;;;;;;16.45;10.13;;;23.20;99.90;;;;;;5093143;28;20157;-74
2023/06/17 10:11:22;;;;;;;19.02;11.35;;;23.30;99.90;;;;;;5093193;28;20046;-75
2023/06/17 10:13:59;;;;;;;16.63;10.30;;;23.20;99.90;;;;;;5091862;28;20032;-74
2023/06/17 10:16:27;;;;;;;15.38;10.63;;;23.40;99.90;;;;;;5093219;28;20055;-77
2023/06/17 10:18:55;;;;;;;16.15;11.13;;;23.50;99.90;;;;;;5093023;28;20498;-78
2023/06/17 10:21:25;;;;;;;16.42;11.18;;;23.40;99.90;;;;;;5091842;28;20048;-76
2023/06/17 10:23:53;;;;;;;13.80;10.00;;;23.40;99.90;;;;;;5091808;28;20079;-77
2023/06/17 10:26:21;;;;;;;15.52;10.80;;;23.50;99.90;;;;;;5091517;28;20056;-78
2023/06/17 10:29:09;;;;;;;16.30;10.80;;;23.70;99.90;;;;;;5093093;28;20044;-76
2023/06/17 10:31:40;;;;;;;18.95;10.88;;;23.60;99.90;;;;;;5091582;28;20059;-77
2023/06/17 10:34:24;;;;;;;17.70;10.90;;;23.50;99.90;;;;;;5092870;28;20036;-77
2023/06/17 10:36:51;;;;;;;18.13;11.02;;;23.30;99.90;;;;;;5091472;28;20078;-78
2023/06/17 10:39:17;;;;;;;17.13;11.35;;;23.60;99.90;;;;;;5092789;28;20056;-77
2023/06/17 10:41:46;;;;;;;14.38;10.85;;;23.60;99.90;;;;;;5095594;28;20040;-78
2023/06/17 10:44:25;;;;;;;14.52;10.60;;;23.60;99.90;;;;;;5095180;28;20048;-78
2023/06/17 10:46:51;;;;;;;14.93;10.18;;;23.60;99.90;;;;;;5096264;28;20083;-76
2023/06/17 10:49:18;;;;;;;14.40;10.85;;;23.70;99.90;;;;;;5095001;28;20083;-76
2023/06/17 10:51:48;;;;;;;14.85;10.23;;;23.70;99.90;;;;;;5096400;28;20048;-76
2023/06/17 10:54:13;;;;;;;16.20;10.05;;;23.90;99.90;;;;;;5096501;28;20047;-77
2023/06/17 10:56:51;;;;;;;16.70;10.48;;;23.60;99.90;;;;;;5096155;28;20040;-77
2023/06/17 10:59:30;;;;;;;15.25;10.25;;;23.40;99.90;;;;;;5095091;28;20465;-76
2023/06/17 11:02:01;;;;;;;17.85;10.88;;;23.90;99.90;;;;;;5085820;28;20040;-77
2023/06/17 11:04:30;;;;;;;19.45;9.93;;;24.00;99.90;;;;;;5085339;28;20396;-77
2023/06/17 11:06:57;;;;;;;13.60;9.13;;;24.10;99.90;;;;;;5078180;28;20411;-77
2023/06/17 11:09:26;;;;;;;13.75;10.10;;;24.10;99.90;;;;;;5084358;28;20046;-78
2023/06/17 11:11:56;;;;;;;13.40;9.35;;;23.90;99.90;;;;;;5075765;28;20044;-76
2023/06/17 11:14:29;;;;;;;14.30;10.10;;;23.90;99.90;;;;;;5075702;28;20048;-78
2023/06/17 11:16:55;;;;;;;19.13;9.93;;;23.80;99.90;;;;;;5077468;28;20047;-77
2023/06/17 11:19:24;;;;;;;17.23;10.68;;;23.80;99.90;;;;;;5082563;28;20488;-76
2023/06/17 11:21:54;;;;;;;12.43;9.82;;;23.80;99.90;;;;;;5074617;28;20048;-77
2023/06/17 11:24:20;;;;;;;19.52;10.27;;;23.90;99.90;;;;;;5075475;28;20462;-76
2023/06/17 11:26:46;;;;;;;16.40;9.98;;;24.10;99.90;;;;;;5074143;28;20048;-77
2023/06/17 11:29:12;;;;;;;15.00;10.50;;;24.00;99.90;;;;;;5108176;28;20049;-77
2023/06/17 11:31:40;;;;;;;14.35;9.90;;;24.00;99.90;;;;;;5074152;28;20049;-75
2023/06/17 11:34:07;;;;;;;12.45;10.07;;;24.00;99.90;;;;;;5077865;28;20086;-75
2023/06/17 11:36:34;;;;;;;17.67;10.02;;;24.10;99.90;;;;;;5080404;28;20048;-76
2023/06/17 11:39:00;;;;;;;19.45;11.35;;;24.10;99.90;;;;;;5075331;28;20111;-77
2023/06/17 11:41:26;;;;;;;15.98;9.80;;;24.20;99.90;;;;;;5075453;28;20174;-76
2023/06/17 11:43:52;;;;;;;14.60;10.02;;;24.30;99.90;;;;;;5075354;28;20048;-76
2023/06/17 11:46:22;;;;;;;15.10;9.63;;;24.30;99.90;;;;;;5073911;28;20045;-76
2023/06/17 11:48:48;;;;;;;16.27;10.35;;;24.60;99.90;;;;;;5075374;28;20052;-76
2023/06/17 11:51:18;;;;;;;16.35;9.95;;;24.40;99.90;;;;;;5075087;28;20041;-76
2023/06/17 11:53:49;;;;;;;17.67;9.57;;;24.30;99.90;;;;;;5073415;28;20067;-76
2023/06/17 11:56:20;;;;;;;14.85;10.07;;;24.50;99.90;;;;;;5074856;28;20048;-78
2023/06/17 11:58:46;;;;;;;16.40;10.25;;;24.50;99.90;;;;;;5074969;28;20084;-78
2023/06/17 12:01:13;;;;;;;14.85;9.90;;;24.40;99.90;;;;;;5073862;28;20046;-77
2023/06/17 12:03:45;;;;;;;14.27;9.55;;;24.20;99.90;;;;;;5075130;28;20090;-77
2023/06/17 12:06:20;;;;;;;16.58;10.07;;;24.30;99.90;;;;;;5073741;28;20541;-78
2023/06/17 12:08:58;;;;;;;17.30;10.25;;;24.40;99.90;;;;;;5080351;28;20094;-77
2023/06/17 12:11:37;;;;;;;13.05;9.95;;;24.70;99.90;;;;;;5073554;28;20408;-77
2023/06/17 12:14:10;;;;;;;17.80;10.45;;;24.30;99.90;;;;;;5074979;28;20098;-77
2023/06/17 12:16:38;;;;;;;17.17;10.70;;;24.50;99.90;;;;;;5073152;28;20400;-78
2023/06/17 12:19:06;;;;;;;15.70;10.40;;;24.80;99.90;;;;;;5074779;28;20048;-80
2023/06/17 12:21:33;;;;;;;15.18;10.05;;;24.60;99.90;;;;;;5074466;28;20036;-78
2023/06/17 12:24:04;;;;;;;15.98;11.13;;;24.50;99.90;;;;;;5074339;28;20052;-78
2023/06/17 12:26:31;;;;;;;15.77;10.30;;;24.60;99.90;;;;;;5074428;28;20123;-78
2023/06/17 12:28:57;;;;;;;15.25;10.30;;;24.50;99.90;;;;;;5073199;28;20502;-78